createdAt,value
2023-04-05T00:00:00.244Z,70.4
2023-04-05T00:01:00.256Z,70.7
2023-04-05T00:02:00.229Z,70.1
2023-04-05T00:03:00.429Z,70.4
2023-04-05T00:04:00.408Z,70.3
2023-04-05T00:05:00.270Z,71
2023-04-05T00:06:00.257Z,70.8
2023-04-05T00:07:00.237Z,71.3
2023-04-05T00:08:00.240Z,71
2023-04-05T00:09:00.230Z,70.9
2023-04-05T00:10:00.269Z,70.9
2023-04-05T00:11:00.256Z,70.9
2023-04-05T00:12:00.233Z,71.2
2023-04-05T00:13:00.276Z,70.9
2023-04-05T00:14:00.242Z,70.9
2023-04-05T00:15:00.241Z,71.6
2023-04-05T00:16:00.358Z,70.9
2023-04-05T00:17:00.242Z,71.2
2023-04-05T00:18:00.387Z,71.6
2023-04-05T00:19:00.253Z,72.2
2023-04-05T00:20:00.261Z,72.2
2023-04-05T00:21:00.282Z,72.5
2023-04-05T00:22:00.266Z,72.1
2023-04-05T00:23:00.257Z,72.2
2023-04-05T00:24:00.251Z,72.2
2023-04-05T00:25:00.249Z,72.1
2023-04-05T00:26:00.301Z,72.1
2023-04-05T00:27:00.250Z,72.2
2023-04-05T00:28:00.246Z,72.4
2023-04-05T00:29:00.252Z,72.5
2023-04-05T00:30:00.256Z,72.8
2023-04-05T00:31:00.275Z,72.8
2023-04-05T00:32:00.307Z,72.4
2023-04-05T00:33:00.314Z,72.7
2023-04-05T00:34:00.257Z,72.7
2023-04-05T00:35:00.255Z,73.1
2023-04-05T00:36:00.324Z,73.4
2023-04-05T00:37:00.283Z,73.4
2023-04-05T00:38:00.287Z,74
2023-04-05T00:39:00.260Z,73.3
2023-04-05T00:40:00.266Z,72.7
2023-04-05T00:41:00.293Z,72.9
2023-04-05T00:42:00.263Z,73.3
2023-04-05T00:43:00.263Z,73.4
2023-04-05T00:44:00.268Z,73.3
2023-04-05T00:45:00.291Z,72.7
2023-04-05T00:46:00.393Z,72.6
2023-04-05T00:47:00.272Z,73.4
2023-04-05T00:48:00.332Z,73.4
2023-04-05T00:49:00.284Z,73.2
2023-04-05T00:50:00.277Z,73.4
2023-04-05T00:51:00.291Z,73
2023-04-05T00:52:00.299Z,72.7
2023-04-05T00:53:00.275Z,72.1
2023-04-05T00:54:00.304Z,72.1
2023-04-05T00:55:00.282Z,72.4
2023-04-05T00:56:00.315Z,72.1
2023-04-05T00:57:00.294Z,72.2
2023-04-05T00:58:00.280Z,72.2
2023-04-05T00:59:00.345Z,72.1
2023-04-05T01:00:00.309Z,71.7
2023-04-05T01:01:00.368Z,72.2
2023-04-05T01:02:00.328Z,72.2
2023-04-05T01:03:00.378Z,71.5
2023-04-05T01:04:00.502Z,71.5
2023-04-05T01:05:00.316Z,71.2
2023-04-05T01:06:00.322Z,70.9
2023-04-05T01:07:00.468Z,70.8
2023-04-05T01:08:00.321Z,71.6
2023-04-05T01:09:00.321Z,71.6
2023-04-05T01:10:00.317Z,71.3
2023-04-05T01:11:00.334Z,71.6
2023-04-05T01:12:00.306Z,71.6
2023-04-05T01:13:00.382Z,71.6
2023-04-05T01:14:00.310Z,71.3
2023-04-05T01:15:00.318Z,71
2023-04-05T01:16:00.413Z,71
2023-04-05T01:17:00.299Z,70.8
2023-04-05T01:18:00.366Z,70.9
2023-04-05T01:19:00.312Z,71
2023-04-05T01:20:00.303Z,71
2023-04-05T01:21:00.338Z,70.7
2023-04-05T01:22:00.322Z,70.7
2023-04-05T01:23:00.303Z,70.4
2023-04-05T01:24:00.327Z,70.4
2023-04-05T01:25:00.302Z,70.7
2023-04-05T01:26:00.331Z,70.4
2023-04-05T01:27:00.313Z,70.7
2023-04-05T01:28:00.306Z,70.4
2023-04-05T01:29:00.311Z,70.4
2023-04-05T01:30:00.324Z,70.4
2023-04-05T01:31:00.351Z,70.4
2023-04-05T01:32:00.327Z,70.1
2023-04-05T01:33:00.331Z,70.1
2023-04-05T01:34:00.317Z,69.8
2023-04-05T01:35:00.317Z,69.8
2023-04-05T01:36:00.344Z,69.8
2023-04-05T01:37:00.317Z,69.8
2023-04-05T01:38:00.347Z,69.8
2023-04-05T01:39:00.320Z,70.1
2023-04-05T01:40:00.323Z,70.1
2023-04-05T01:41:00.349Z,70.1
2023-04-05T01:42:00.318Z,69.8
2023-04-05T01:43:00.334Z,69.2
2023-04-05T01:44:00.337Z,69.2
2023-04-05T01:45:00.326Z,69.2
2023-04-05T01:46:00.358Z,69.2
2023-04-05T01:47:00.335Z,69.2
2023-04-05T01:48:00.415Z,69.5
2023-04-05T01:49:00.331Z,69.8
2023-04-05T01:50:00.345Z,69.8
2023-04-05T01:51:00.342Z,69.2
2023-04-05T01:52:00.345Z,69.2
2023-04-05T01:53:00.355Z,69.2
2023-04-05T01:54:00.346Z,69.1
2023-04-05T01:55:00.345Z,69.5
2023-04-05T01:56:00.365Z,69.8
2023-04-05T01:57:00.345Z,69.8
2023-04-05T01:58:00.404Z,69.2
2023-04-05T01:59:00.368Z,69.2
2023-04-05T02:00:00.374Z,69.2
2023-04-05T02:01:01.088Z,69.1
2023-04-05T02:02:01.011Z,68.8
2023-04-05T02:03:01.094Z,69.5
2023-04-05T02:04:01.067Z,70.4
2023-04-05T02:05:00.981Z,70.4
2023-04-05T02:06:01.010Z,70.7
2023-04-05T02:07:01.043Z,70.3
2023-04-05T02:08:00.990Z,69.8
2023-04-05T02:09:00.999Z,69.8
2023-04-05T02:10:01.068Z,69.8
2023-04-05T02:11:01.016Z,69.8
2023-04-05T02:12:00.996Z,69.5
2023-04-05T02:13:01.065Z,69.2
2023-04-05T02:14:00.996Z,69.8
2023-04-05T02:15:01.014Z,69.8
2023-04-05T02:16:01.116Z,69.8
2023-04-05T02:17:00.993Z,70.4
2023-04-05T02:18:01.012Z,71
2023-04-05T02:19:01.012Z,71
2023-04-05T02:20:01.019Z,71
2023-04-05T02:21:01.022Z,71.3
2023-04-05T02:22:01.022Z,71
2023-04-05T02:23:01.013Z,70.5
2023-04-05T02:24:01.009Z,70.2
2023-04-05T02:25:01.016Z,70.7
2023-04-05T02:26:01.026Z,71
2023-04-05T02:27:01.026Z,70.7
2023-04-05T02:28:01.026Z,71
2023-04-05T02:29:01.026Z,71.6
2023-04-05T02:30:01.053Z,71.6
2023-04-05T02:31:01.057Z,71.6
2023-04-05T02:32:01.092Z,71.9
2023-04-05T02:33:01.078Z,71.9
2023-04-05T02:34:01.065Z,72.2
2023-04-05T02:35:01.026Z,71.9
2023-04-05T02:36:01.053Z,71.3
2023-04-05T02:37:01.111Z,71
2023-04-05T02:38:01.012Z,71
2023-04-05T02:39:01.020Z,71
2023-04-05T02:40:01.083Z,71.3
2023-04-05T02:41:01.017Z,71.6
2023-04-05T02:42:01.019Z,72.2
2023-04-05T02:43:01.058Z,72.2
2023-04-05T02:44:01.026Z,72.2
2023-04-05T02:45:01.049Z,72.2
2023-04-05T02:46:01.080Z,71.6
2023-04-05T02:47:01.108Z,71.6
2023-04-05T02:48:01.075Z,72.2
2023-04-05T02:49:01.025Z,72.2
2023-04-05T02:50:01.050Z,72.2
2023-04-05T02:51:01.031Z,71.6
2023-04-05T02:52:01.027Z,71.6
2023-04-05T02:53:01.059Z,71.1
2023-04-05T02:54:01.052Z,71.6
2023-04-05T02:55:01.035Z,71.5
2023-04-05T02:56:01.050Z,71.5
2023-04-05T02:57:01.033Z,71.4
2023-04-05T02:58:01.060Z,71.6
2023-04-05T02:59:01.090Z,71.2
2023-04-05T03:00:01.039Z,71.5
2023-04-05T03:01:01.087Z,71.6
2023-04-05T03:02:01.045Z,70.9
2023-04-05T03:03:01.142Z,70.9
2023-04-05T03:04:01.165Z,70.9
2023-04-05T03:05:01.065Z,70.9
2023-04-05T03:06:01.076Z,70.9
2023-04-05T03:07:01.052Z,70.9
2023-04-05T03:08:01.063Z,70.9
2023-04-05T03:09:01.044Z,70.9
2023-04-05T03:10:01.044Z,70.9
2023-04-05T03:11:01.072Z,70.9
2023-04-05T03:12:01.044Z,70.9
2023-04-05T03:13:01.047Z,70.3
2023-04-05T03:14:01.061Z,69.8
2023-04-05T03:15:01.056Z,70.3
2023-04-05T03:16:01.075Z,70.3
2023-04-05T03:17:01.079Z,70.3
2023-04-05T03:18:01.120Z,69.7
2023-04-05T03:19:01.054Z,69.5
2023-04-05T03:20:01.054Z,69.7
2023-04-05T03:21:01.150Z,70
2023-04-05T03:22:01.057Z,70.3
2023-04-05T03:23:01.069Z,70.3
2023-04-05T03:24:01.076Z,70.3
2023-04-05T03:25:01.083Z,70.6
2023-04-05T03:26:01.089Z,70.3
2023-04-05T03:27:01.085Z,70.3
2023-04-05T03:28:01.063Z,70.3
2023-04-05T03:29:01.067Z,70.6
2023-04-05T03:30:01.082Z,70.8
2023-04-05T03:31:01.123Z,70.9
2023-04-05T03:32:01.087Z,70.9
2023-04-05T03:33:01.132Z,70.9
2023-04-05T03:34:01.070Z,71.5
2023-04-05T03:35:01.102Z,71.5
2023-04-05T03:36:01.162Z,71.5
2023-04-05T03:37:01.118Z,71.5
2023-04-05T03:38:01.077Z,71.2
2023-04-05T03:39:01.110Z,71.5
2023-04-05T03:40:01.079Z,71.5
2023-04-05T03:41:01.075Z,71.8
2023-04-05T03:42:01.076Z,72.1
2023-04-05T03:43:01.108Z,72.1
2023-04-05T03:44:01.116Z,72.1
2023-04-05T03:45:01.088Z,72.1
2023-04-05T03:46:01.118Z,72.1
2023-04-05T03:47:01.087Z,72.1
2023-04-05T03:48:01.131Z,72.1
2023-04-05T03:49:01.117Z,71.8
2023-04-05T03:50:01.105Z,71.8
2023-04-05T03:51:01.117Z,72.1
2023-04-05T03:52:01.113Z,72.7
2023-04-05T03:53:01.123Z,73
2023-04-05T03:54:01.108Z,72.7
2023-04-05T03:55:01.130Z,73.3
2023-04-05T03:56:01.095Z,73.1
2023-04-05T03:57:01.134Z,73.3
2023-04-05T03:58:01.144Z,73.3
2023-04-05T03:59:01.204Z,73.3
2023-04-05T04:00:01.122Z,73.3
2023-04-05T04:01:01.127Z,73.3
2023-04-05T04:02:01.178Z,73.6
2023-04-05T04:03:00.171Z,73.9
2023-04-05T04:04:00.225Z,73.6
2023-04-05T04:05:00.248Z,73.6
2023-04-05T04:06:00.245Z,73.9
2023-04-05T04:07:00.228Z,73.6
2023-04-05T04:08:00.166Z,73.6
2023-04-05T04:09:00.198Z,73.7
2023-04-05T04:10:00.193Z,73.3
2023-04-05T04:11:00.198Z,73.1
2023-04-05T04:12:00.186Z,73.1
2023-04-05T04:13:00.187Z,73.3
2023-04-05T04:14:00.204Z,73.3
2023-04-05T04:15:00.183Z,73.6
2023-04-05T04:16:00.841Z,73.6
2023-04-05T04:17:00.184Z,73.9
2023-04-05T04:18:00.250Z,73.1
2023-04-05T04:19:00.210Z,73.1
2023-04-05T04:20:00.204Z,73
2023-04-05T04:21:00.200Z,73.3
2023-04-05T04:22:00.207Z,73.3
2023-04-05T04:23:00.206Z,73.2
2023-04-05T04:24:00.200Z,73.1
2023-04-05T04:25:00.186Z,72.9
2023-04-05T04:26:00.209Z,73.3
2023-04-05T04:27:00.226Z,73.2
2023-04-05T04:28:00.182Z,73.6
2023-04-05T04:29:00.187Z,73.6
2023-04-05T04:30:00.224Z,73.5
2023-04-05T04:31:00.218Z,73.9
2023-04-05T04:32:00.242Z,74.1
2023-04-05T04:33:00.272Z,74.2
2023-04-05T04:34:00.212Z,73.8
2023-04-05T04:35:00.225Z,73.8
2023-04-05T04:36:00.274Z,73.8
2023-04-05T04:37:00.245Z,74.1
2023-04-05T04:38:00.192Z,74
2023-04-05T04:39:00.215Z,74.2
2023-04-05T04:40:00.230Z,74.3
2023-04-05T04:41:00.199Z,74.4
2023-04-05T04:42:00.208Z,74.4
2023-04-05T04:43:00.253Z,74.4
2023-04-05T04:44:00.200Z,74.4
2023-04-05T04:45:00.212Z,74.4
2023-04-05T04:46:00.285Z,74.7
2023-04-05T04:47:00.222Z,74.4
2023-04-05T04:48:00.271Z,74.7
2023-04-05T04:49:00.226Z,74.7
2023-04-05T04:50:00.228Z,74.5
2023-04-05T04:51:00.229Z,74.3
2023-04-05T04:52:00.240Z,74.4
2023-04-05T04:53:00.228Z,74.3
2023-04-05T04:54:00.233Z,74.4
2023-04-05T04:55:00.212Z,73.8
2023-04-05T04:56:00.210Z,73.7
2023-04-05T04:57:00.220Z,73.8
2023-04-05T04:58:00.250Z,73.8
2023-04-05T04:59:00.269Z,73.8
2023-04-05T05:00:00.212Z,73.8
2023-04-05T05:01:00.271Z,73.8
2023-04-05T05:02:00.225Z,73.8
2023-04-05T05:03:00.238Z,73.7
2023-04-05T05:04:00.283Z,73.8
2023-04-05T05:05:00.225Z,73.8
2023-04-05T05:06:00.226Z,73.8
2023-04-05T05:07:00.246Z,73.8
2023-04-05T05:08:00.254Z,73.8
2023-04-05T05:09:00.249Z,73.8
2023-04-05T05:10:00.250Z,73.5
2023-04-05T05:11:00.237Z,73.2
2023-04-05T05:12:00.265Z,73.8
2023-04-05T05:13:00.257Z,73.2
2023-04-05T05:14:00.259Z,73.1
2023-04-05T05:15:00.283Z,73.1
2023-04-05T05:16:00.279Z,73.1
2023-04-05T05:17:00.388Z,73.2
2023-04-05T05:18:00.253Z,73.2
2023-04-05T05:19:00.251Z,73.3
2023-04-05T05:20:00.258Z,73.2
2023-04-05T05:21:00.269Z,73.3
2023-04-05T05:22:00.287Z,73.3
2023-04-05T05:23:00.272Z,73.3
2023-04-05T05:24:00.270Z,73.3
2023-04-05T05:25:00.274Z,73
2023-04-05T05:26:00.243Z,72.5
2023-04-05T05:27:00.294Z,72.6
2023-04-05T05:28:00.277Z,72.6
2023-04-05T05:29:00.286Z,72.3
2023-04-05T05:30:00.278Z,72.2
2023-04-05T05:31:00.268Z,72.4
2023-04-05T05:32:00.282Z,72.7
2023-04-05T05:33:00.274Z,72.1
2023-04-05T05:34:00.284Z,72.3
2023-04-05T05:35:00.259Z,72.7
2023-04-05T05:36:00.290Z,72.5
2023-04-05T05:37:00.300Z,72.5
2023-04-05T05:38:00.264Z,72.4
2023-04-05T05:39:00.291Z,72.7
2023-04-05T05:40:00.336Z,72.4
2023-04-05T05:41:00.260Z,72.1
2023-04-05T05:42:00.300Z,72.1
2023-04-05T05:43:00.288Z,72.1
2023-04-05T05:44:00.285Z,72.1
2023-04-05T05:45:00.299Z,72.1
2023-04-05T05:46:00.320Z,71.8
2023-04-05T05:47:00.292Z,71.3
2023-04-05T05:48:00.376Z,71.2
2023-04-05T05:49:00.275Z,71.2
2023-04-05T05:50:00.284Z,71.2
2023-04-05T05:51:00.271Z,71.5
2023-04-05T05:52:00.310Z,71.5
2023-04-05T05:53:01.588Z,71.3
2023-04-05T05:54:00.272Z,71.2
2023-04-05T05:55:00.297Z,70.9
2023-04-05T05:56:00.281Z,70.9
2023-04-05T05:57:00.302Z,70.9
2023-04-05T05:58:00.301Z,70.9
2023-04-05T05:59:00.300Z,70.9
2023-04-05T06:00:00.307Z,70.9
2023-04-05T06:01:00.303Z,71.2
2023-04-05T06:02:00.315Z,70.9
2023-04-05T06:03:00.380Z,70.9
2023-04-05T06:04:00.350Z,70.9
2023-04-05T06:05:00.403Z,70.6
2023-04-05T06:06:00.287Z,70.3
2023-04-05T06:07:00.328Z,70.3
2023-04-05T06:08:00.288Z,70.3
2023-04-05T06:09:00.294Z,70.3
2023-04-05T06:10:00.316Z,70.3
2023-04-05T06:11:00.334Z,70.5
2023-04-05T06:12:00.310Z,70.6
2023-04-05T06:13:00.303Z,70.3
2023-04-05T06:14:00.346Z,69.7
2023-04-05T06:15:00.320Z,69.1
2023-04-05T06:16:00.447Z,68.8
2023-04-05T06:17:00.488Z,68.8
2023-04-05T06:18:00.366Z,68.5
2023-04-05T06:19:00.364Z,69.2
2023-04-05T06:20:00.329Z,68.4
2023-04-05T06:21:00.304Z,68.3
2023-04-05T06:22:00.338Z,66.7
2023-04-05T06:23:00.310Z,66.7
2023-04-05T06:24:00.307Z,66.8
2023-04-05T06:25:00.415Z,67.1
2023-04-05T06:26:00.331Z,66
2023-04-05T06:27:00.342Z,66.5
2023-04-05T06:28:00.404Z,66.2
2023-04-05T06:29:00.343Z,66.2
2023-04-05T06:30:00.398Z,66
2023-04-05T06:31:00.347Z,66
2023-04-05T06:32:00.414Z,65.6
2023-04-05T06:33:00.353Z,65.6
2023-04-05T06:34:00.352Z,65.3
2023-04-05T06:35:00.523Z,65.1
2023-04-05T06:36:00.392Z,65.9
2023-04-05T06:37:00.350Z,65.6
2023-04-05T06:38:00.314Z,65
2023-04-05T06:39:00.344Z,64.4
2023-04-05T06:40:00.416Z,64.4
2023-04-05T06:41:00.352Z,64.4
2023-04-05T06:42:00.344Z,63.8
2023-04-05T06:43:00.344Z,63.8
2023-04-05T06:44:00.365Z,63.8
2023-04-05T06:45:00.363Z,64.1
2023-04-05T06:46:00.435Z,63.8
2023-04-05T06:47:00.369Z,63.8
2023-04-05T06:48:00.421Z,63.2
2023-04-05T06:49:03.545Z,63.8
2023-04-05T06:50:00.341Z,64.1
2023-04-05T06:51:00.352Z,63.5
2023-04-05T06:52:00.376Z,62.3
2023-04-05T06:53:00.333Z,63.5
2023-04-05T06:54:00.393Z,63.1
2023-04-05T06:55:00.434Z,62.3
2023-04-05T06:56:00.417Z,62.9
2023-04-05T06:57:01.805Z,62.6
2023-04-05T06:58:00.372Z,62.3
2023-04-05T06:59:00.400Z,63.3
2023-04-05T07:00:00.427Z,63
2023-04-05T07:01:00.408Z,61.9
2023-04-05T07:02:00.439Z,61
2023-04-05T07:03:00.466Z,62.7
2023-04-05T07:04:00.459Z,62.7
2023-04-05T07:05:00.370Z,62.4
2023-04-05T07:06:00.346Z,61.4
2023-04-05T07:07:00.449Z,62.1
2023-04-05T07:08:00.432Z,61.4
2023-04-05T07:09:00.358Z,60.8
2023-04-05T07:10:00.416Z,61.5
2023-04-05T07:11:00.348Z,61.5
2023-04-05T07:12:00.442Z,61.5
2023-04-05T07:13:00.368Z,60.9
2023-04-05T07:14:00.369Z,61.5
2023-04-05T07:15:00.374Z,61.5
2023-04-05T07:16:00.454Z,60.9
2023-04-05T07:17:00.393Z,59
2023-04-05T07:18:00.588Z,59.6
2023-04-05T07:19:00.385Z,60.2
2023-04-05T07:20:00.381Z,60.2
2023-04-05T07:21:00.425Z,59.7
2023-04-05T07:22:00.380Z,59.4
2023-04-05T07:23:00.362Z,59.1
2023-04-05T07:24:00.389Z,57.5
2023-04-05T07:25:00.388Z,58.5
2023-04-05T07:26:00.386Z,59.1
2023-04-05T07:27:00.389Z,58.8
2023-04-05T07:28:00.365Z,59.1
2023-04-05T07:29:00.386Z,59.1
2023-04-05T07:30:00.403Z,59.7
2023-04-05T07:31:00.423Z,59.7
2023-04-05T07:32:00.411Z,58.8
2023-04-05T07:33:00.412Z,58.5
2023-04-05T07:34:00.430Z,58.4
2023-04-05T07:35:00.383Z,59.1
2023-04-05T07:36:00.421Z,58.2
2023-04-05T07:37:00.423Z,58.5
2023-04-05T07:38:00.378Z,56.7
2023-04-05T07:39:00.405Z,57.3
2023-04-05T07:40:00.414Z,57.5
2023-04-05T07:41:00.396Z,57.3
2023-04-05T07:42:00.388Z,56.7
2023-04-05T07:43:00.418Z,55.8
2023-04-05T07:44:00.401Z,56.7
2023-04-05T07:45:00.406Z,55.5
2023-04-05T07:46:00.418Z,55.5
2023-04-05T07:47:00.412Z,55.7
2023-04-05T07:48:00.433Z,53.9
2023-04-05T07:49:00.430Z,54.2
2023-04-05T07:50:00.391Z,54.8
2023-04-05T07:51:00.435Z,54.7
2023-04-05T07:52:00.425Z,54.5
2023-04-05T07:53:00.408Z,54.2
2023-04-05T07:54:01.941Z,54.5
2023-04-05T07:55:00.430Z,55.1
2023-04-05T07:56:00.394Z,56.1
2023-04-05T07:57:00.420Z,54.2
2023-04-05T07:58:00.434Z,55.5
2023-04-05T07:59:00.437Z,55.5
2023-04-05T08:00:00.428Z,55.5
2023-04-05T08:01:00.431Z,55.8
2023-04-05T08:02:04.909Z,54.2
2023-04-05T08:03:02.150Z,53.3
2023-04-05T08:04:00.473Z,54.9
2023-04-05T08:05:00.512Z,53.6
2023-04-05T08:06:00.429Z,53
2023-04-05T08:07:00.467Z,53
2023-04-05T08:08:00.425Z,54.3
2023-04-05T08:09:00.418Z,53
2023-04-05T08:10:00.512Z,53.1
2023-04-05T08:11:00.458Z,53.4
2023-04-05T08:12:00.431Z,51.8
2023-04-05T08:13:00.437Z,52.8
2023-04-05T08:14:00.438Z,52.5
2023-04-05T08:15:00.438Z,51.5
2023-04-05T08:16:00.518Z,52.5
2023-04-05T08:17:00.644Z,52.5
2023-04-05T08:18:00.467Z,53.1
2023-04-05T08:19:00.437Z,51.2
2023-04-05T08:20:00.450Z,51.2
2023-04-05T08:21:00.444Z,51.9
2023-04-05T08:22:00.448Z,51.3
2023-04-05T08:23:00.453Z,51.9
2023-04-05T08:24:00.445Z,50.6
2023-04-05T08:25:00.558Z,51.9
2023-04-05T08:26:00.448Z,50.3
2023-04-05T08:27:00.460Z,50.7
2023-04-05T08:28:00.456Z,51.3
2023-04-05T08:29:00.438Z,51.9
2023-04-05T08:30:00.453Z,51.3
2023-04-05T08:31:00.476Z,49.1
2023-04-05T08:32:00.454Z,47.6
2023-04-05T08:33:00.472Z,48.8
2023-04-05T08:34:00.466Z,49.4
2023-04-05T08:35:00.472Z,47.3
2023-04-05T08:36:00.489Z,46
2023-04-05T08:37:00.605Z,48.2
2023-04-05T08:38:00.459Z,48.2
2023-04-05T08:39:00.475Z,49.4
2023-04-05T08:40:00.460Z,49.4
2023-04-05T08:41:00.466Z,49.4
2023-04-05T08:42:00.439Z,50
2023-04-05T08:43:00.466Z,49.7
2023-04-05T08:44:00.463Z,49.4
2023-04-05T08:45:00.445Z,49.1
2023-04-05T08:46:00.495Z,48.8
2023-04-05T08:47:00.509Z,47.9
2023-04-05T08:48:00.507Z,47.6
2023-04-05T08:49:00.456Z,47
2023-04-05T08:50:00.489Z,46.7
2023-04-05T08:51:00.472Z,47.3
2023-04-05T08:52:00.478Z,49.1
2023-04-05T08:53:00.458Z,48.8
2023-04-05T08:54:00.467Z,47.9
2023-04-05T08:55:00.492Z,47
2023-04-05T08:56:00.481Z,47
2023-04-05T08:57:00.465Z,46.4
2023-04-05T08:58:00.490Z,46.4
2023-04-05T08:59:00.540Z,47
2023-04-05T09:00:00.502Z,44.8
2023-04-05T09:01:00.544Z,45.1
2023-04-05T09:02:02.179Z,46.7
2023-04-05T09:03:00.576Z,45.8
2023-04-05T09:04:00.509Z,44.8
2023-04-05T09:05:00.483Z,45.5
2023-04-05T09:06:00.498Z,46.1
2023-04-05T09:07:00.502Z,45.8
2023-04-05T09:08:00.472Z,46.4
2023-04-05T09:09:00.486Z,46.1
2023-04-05T09:10:00.511Z,46.7
2023-04-05T09:11:00.519Z,46.4
2023-04-05T09:12:00.476Z,46.4
2023-04-05T09:13:00.517Z,45.5
2023-04-05T09:14:00.482Z,44.9
2023-04-05T09:15:00.491Z,43.6
2023-04-05T09:16:00.577Z,45.2
2023-04-05T09:17:00.550Z,43.3
2023-04-05T09:18:00.521Z,44.2
2023-04-05T09:19:00.527Z,44.6
2023-04-05T09:20:00.498Z,45.8
2023-04-05T09:21:00.518Z,46.1
2023-04-05T09:22:00.529Z,45.2
2023-04-05T09:23:00.511Z,45.8
2023-04-05T09:24:00.487Z,45.8
2023-04-05T09:25:00.500Z,45.2
2023-04-05T09:26:00.529Z,45.8
2023-04-05T09:27:00.508Z,44.9
2023-04-05T09:28:00.543Z,45.2
2023-04-05T09:29:00.514Z,46.4
2023-04-05T09:30:00.531Z,44.9
2023-04-05T09:31:00.544Z,45.7
2023-04-05T09:32:00.497Z,45.5
2023-04-05T09:33:00.639Z,43.9
2023-04-05T09:34:00.501Z,45.5
2023-04-05T09:35:00.501Z,44.6
2023-04-05T09:36:00.597Z,43.3
2023-04-05T09:37:00.504Z,45.2
2023-04-05T09:38:00.523Z,44.6
2023-04-05T09:39:00.523Z,45.2
2023-04-05T09:40:00.513Z,44.3
2023-04-05T09:41:00.538Z,45.2
2023-04-05T09:42:00.525Z,43.7
2023-04-05T09:43:00.534Z,44
2023-04-05T09:44:00.529Z,44
2023-04-05T09:45:00.545Z,46.5
2023-04-05T09:46:00.590Z,47.1
2023-04-05T09:47:00.538Z,47.7
2023-04-05T09:48:00.578Z,48.4
2023-04-05T09:49:00.596Z,46.5
2023-04-05T09:50:00.550Z,46.5
2023-04-05T09:51:10.204Z,47.1
2023-04-05T09:52:00.547Z,45.3
2023-04-05T09:53:00.522Z,43.1
2023-04-05T09:54:00.544Z,46.5
2023-04-05T09:55:00.529Z,44.7
2023-04-05T09:56:00.548Z,44.6
2023-04-05T09:57:00.525Z,44.3
2023-04-05T09:58:00.556Z,44
2023-04-05T09:59:00.570Z,45.6
2023-04-05T10:00:00.605Z,45.9
2023-04-05T10:01:13.919Z,44.1
2023-04-05T10:02:00.614Z,42.2
2023-04-05T10:03:00.634Z,42.2
2023-04-05T10:04:00.551Z,42.2
2023-04-05T10:05:00.445Z,42.2
2023-04-05T10:06:00.435Z,44.1
2023-04-05T10:07:00.427Z,44.7
2023-04-05T10:08:00.376Z,42.5
2023-04-05T10:09:00.329Z,42.2
2023-04-05T10:10:00.308Z,44.7
2023-04-05T10:11:00.271Z,45
2023-04-05T10:12:00.265Z,46
2023-04-05T10:13:00.212Z,44.7
2023-04-05T10:14:00.196Z,44.4
2023-04-05T10:15:00.193Z,44.7
2023-04-05T10:16:00.348Z,44.1
2023-04-05T10:17:00.116Z,43.8
2023-04-05T10:18:00.182Z,44.4
2023-04-05T10:19:00.145Z,45.4
2023-04-05T10:20:00.166Z,45.4
2023-04-05T10:21:00.154Z,44.1
2023-04-05T10:22:00.177Z,43.5
2023-04-05T10:23:00.132Z,43.2
2023-04-05T10:24:00.120Z,42.3
2023-04-05T10:25:00.127Z,41
2023-04-05T10:26:00.141Z,41.9
2023-04-05T10:27:00.156Z,42.3
2023-04-05T10:28:00.164Z,42.3
2023-04-05T10:29:00.152Z,42.3
2023-04-05T10:30:00.157Z,41
2023-04-05T10:31:00.163Z,41.3
2023-04-05T10:32:00.254Z,41.6
2023-04-05T10:33:00.279Z,42.3
2023-04-05T10:34:00.199Z,41
2023-04-05T10:35:00.145Z,41.6
2023-04-05T10:36:00.257Z,38.8
2023-04-05T10:37:00.167Z,40.3
2023-04-05T10:38:00.190Z,39.7
2023-04-05T10:39:00.477Z,40.9
2023-04-05T10:40:00.200Z,42.8
2023-04-05T10:41:00.152Z,42.2
2023-04-05T10:42:00.172Z,41.9
2023-04-05T10:43:00.219Z,41.6
2023-04-05T10:44:01.622Z,41.3
2023-04-05T10:45:00.297Z,41
2023-04-05T10:46:00.201Z,40.4
2023-04-05T10:47:00.161Z,41.6
2023-04-05T10:48:00.304Z,41.6
2023-04-05T10:49:00.230Z,41.9
2023-04-05T10:50:00.240Z,42.6
2023-04-05T10:51:00.176Z,41.6
2023-04-05T10:52:00.171Z,41
2023-04-05T10:53:00.176Z,39.8
2023-04-05T10:54:00.176Z,40.7
2023-04-05T10:55:00.279Z,40.4
2023-04-05T10:56:00.206Z,41.7
2023-04-05T10:57:00.174Z,41.7
2023-04-05T10:58:00.187Z,41.7
2023-04-05T10:59:00.226Z,41.7
2023-04-05T11:00:00.199Z,43.5
2023-04-05T11:01:00.244Z,43.2
2023-04-05T11:02:00.263Z,42.3
2023-04-05T11:03:00.274Z,42.3
2023-04-05T11:04:00.209Z,42.9
2023-04-05T11:05:00.217Z,42.6
2023-04-05T11:06:00.190Z,40.4
2023-04-05T11:07:00.234Z,39.8
2023-04-05T11:08:00.192Z,40.4
2023-04-05T11:09:00.164Z,39.8
2023-04-05T11:10:00.255Z,40.4
2023-04-05T11:11:00.200Z,40.4
2023-04-05T11:12:00.209Z,40.1
2023-04-05T11:13:00.189Z,40.4
2023-04-05T11:14:00.197Z,41.4
2023-04-05T11:15:00.204Z,39.8
2023-04-05T11:16:00.241Z,40.4
2023-04-05T11:17:00.365Z,38.6
2023-04-05T11:18:00.255Z,38.6
2023-04-05T11:19:00.226Z,38.6
2023-04-05T11:20:00.205Z,36.4
2023-04-05T11:21:00.209Z,37.3
2023-04-05T11:22:00.211Z,38.6
2023-04-05T11:23:00.189Z,37.3
2023-04-05T11:24:00.210Z,39.2
2023-04-05T11:25:00.210Z,38.2
2023-04-05T11:26:00.217Z,36.7
2023-04-05T11:27:00.223Z,38.2
2023-04-05T11:28:00.211Z,37.9
2023-04-05T11:29:00.196Z,39.5
2023-04-05T11:30:00.255Z,39.8
2023-04-05T11:31:00.287Z,38.9
2023-04-05T11:32:00.217Z,37.3
2023-04-05T11:33:00.231Z,37.9
2023-04-05T11:34:00.312Z,37.9
2023-04-05T11:35:00.223Z,40.5
2023-04-05T11:36:00.281Z,40.5
2023-04-05T11:37:00.204Z,39.8
2023-04-05T11:38:00.291Z,39.5
2023-04-05T11:39:00.217Z,38.9
2023-04-05T11:40:00.233Z,39.2
2023-04-05T11:41:00.227Z,39.2
2023-04-05T11:42:00.263Z,40.5
2023-04-05T11:43:00.225Z,39.2
2023-04-05T11:44:00.220Z,39.9
2023-04-05T11:45:00.247Z,39.9
2023-04-05T11:46:00.268Z,39.2
2023-04-05T11:47:00.240Z,39.2
2023-04-05T11:48:00.230Z,39.3
2023-04-05T11:49:00.231Z,36.7
2023-04-05T11:50:00.269Z,36.1
2023-04-05T11:51:00.258Z,37.4
2023-04-05T11:52:00.221Z,36.1
2023-04-05T11:53:00.217Z,37
2023-04-05T11:54:00.248Z,37.7
2023-04-05T11:55:02.929Z,37.6
2023-04-05T11:56:00.243Z,39.9
2023-04-05T11:57:00.251Z,36.7
2023-04-05T11:58:00.239Z,36.7
2023-04-05T11:59:00.257Z,37.4
2023-04-05T12:00:00.495Z,38.6
2023-04-05T12:01:00.250Z,39.2
2023-04-05T12:02:00.240Z,38.6
2023-04-05T12:03:00.357Z,36.7
2023-04-05T12:04:00.365Z,36.1
2023-04-05T12:05:00.307Z,37.1
2023-04-05T12:06:00.262Z,35.5
2023-04-05T12:07:00.251Z,34.2
2023-04-05T12:08:00.222Z,35.5
2023-04-05T12:09:00.222Z,34.5
2023-04-05T12:10:00.297Z,34.5
2023-04-05T12:11:00.280Z,36.4
2023-04-05T12:12:00.262Z,38.6
2023-04-05T12:13:00.239Z,34.2
2023-04-05T12:14:00.273Z,36.7
2023-04-05T12:15:00.263Z,35.8
2023-04-05T12:16:00.317Z,35.5
2023-04-05T12:17:00.242Z,33.9
2023-04-05T12:18:00.346Z,33.6
2023-04-05T12:19:00.271Z,36.4
2023-04-05T12:20:00.263Z,34.5
2023-04-05T12:21:00.257Z,34.2
2023-04-05T12:22:00.239Z,37.3
2023-04-05T12:23:00.275Z,35.4
2023-04-05T12:24:00.239Z,38.3
2023-04-05T12:25:00.265Z,38.6
2023-04-05T12:26:00.265Z,39.2
2023-04-05T12:27:01.181Z,38.6
2023-04-05T12:28:00.254Z,36.1
2023-04-05T12:29:00.246Z,39.2
2023-04-05T12:30:00.317Z,37.4
2023-04-05T12:31:00.271Z,38
2023-04-05T12:32:00.334Z,38.6
2023-04-05T12:33:00.361Z,37.4
2023-04-05T12:34:00.255Z,38
2023-04-05T12:35:00.269Z,38
2023-04-05T12:36:00.293Z,36.1
2023-04-05T12:37:00.254Z,37.4
2023-04-05T12:38:00.255Z,37.4
2023-04-05T12:39:00.254Z,38
2023-04-05T12:40:00.286Z,38.7
2023-04-05T12:41:00.282Z,37.4
2023-04-05T12:42:00.280Z,36.8
2023-04-05T12:43:00.263Z,36.2
2023-04-05T12:44:00.345Z,36.8
2023-04-05T12:45:00.284Z,36.8
2023-04-05T12:46:00.310Z,35.6
2023-04-05T12:47:00.273Z,36.8
2023-04-05T12:48:00.338Z,34.9
2023-04-05T12:49:00.286Z,36.2
2023-04-05T12:50:00.315Z,36.2
2023-04-05T12:51:00.266Z,36.8
2023-04-05T12:52:00.279Z,36.8
2023-04-05T12:53:00.271Z,36.8
2023-04-05T12:54:00.296Z,36.8
2023-04-05T12:55:00.293Z,36.8
2023-04-05T12:56:00.269Z,38.1
2023-04-05T12:57:00.298Z,38.1
2023-04-05T12:58:00.292Z,37.5
2023-04-05T12:59:00.357Z,38.7
2023-04-05T13:00:00.275Z,36.5
2023-04-05T13:01:00.317Z,36.8
2023-04-05T13:02:00.309Z,36.2
2023-04-05T13:03:00.558Z,37.1
2023-04-05T13:04:14.652Z,35.9
2023-04-05T13:05:00.287Z,36.2
2023-04-05T13:06:00.284Z,37.5
2023-04-05T13:07:00.304Z,36.8
2023-04-05T13:08:00.308Z,35.6
2023-04-05T13:09:00.587Z,36.2
2023-04-05T13:10:00.287Z,36.9
2023-04-05T13:11:00.290Z,34.7
2023-04-05T13:12:00.317Z,37.8
2023-04-05T13:13:00.315Z,36.2
2023-04-05T13:14:00.315Z,36.5
2023-04-05T13:15:00.302Z,36.5
2023-04-05T13:16:00.491Z,34
2023-04-05T13:17:00.299Z,36.2
2023-04-05T13:18:00.351Z,35.6
2023-04-05T13:19:00.335Z,36.9
2023-04-05T13:20:00.317Z,35.6
2023-04-05T13:21:00.324Z,35.3
2023-04-05T13:22:00.326Z,33.1